sensor_id;sensor_type;location;lat;lon;timestamp;P1;durP1;ratioP1;P2;durP2;ratioP2
44842;SDS011;31884;52.538;13.820;2023-03-15T00:00:49;5.28;;;1.15;;
44842;SDS011;31884;52.538;13.820;2023-03-15T00:03:17;5.03;;;1.13;;
44842;SDS011;31884;52.538;13.820;2023-03-15T00:05:44;4.90;;;1.10;;
44842;SDS011;31884;52.538;13.820;2023-03-15T00:08:10;5.75;;;1.10;;
44842;SDS011;31884;52.538;13.820;2023-03-15T00:10:38;11.65;;;1.98;;
44842;SDS011;31884;52.538;13.820;2023-03-15T00:13:08;8.35;;;1.50;;
44842;SDS011;31884;52.538;13.820;2023-03-15T00:15:34;5.93;;;1.15;;
44842;SDS011;31884;52.538;13.820;2023-03-15T00:18:00;3.80;;;1.00;;
44842;SDS011;31884;52.538;13.820;2023-03-15T00:20:29;5.65;;;1.45;;
44842;SDS011;31884;52.538;13.820;2023-03-15T00:22:54;4.60;;;1.00;;
44842;SDS011;31884;52.538;13.820;2023-03-15T00:25:20;6.22;;;1.40;;
44842;SDS011;31884;52.538;13.820;2023-03-15T00:27:45;5.53;;;1.33;;
44842;SDS011;31884;52.538;13.820;2023-03-15T00:30:11;5.43;;;1.15;;
44842;SDS011;31884;52.538;13.820;2023-03-15T00:32:37;5.22;;;1.10;;
44842;SDS011;31884;52.538;13.820;2023-03-15T00:35:02;9.20;;;1.27;;
44842;SDS011;31884;52.538;13.820;2023-03-15T00:37:28;3.05;;;1.25;;
44842;SDS011;31884;52.538;13.820;2023-03-15T00:39:55;6.05;;;0.80;;
44842;SDS011;31884;52.538;13.820;2023-03-15T00:42:20;5.90;;;1.13;;
44842;SDS011;31884;52.538;13.820;2023-03-15T00:44:51;6.93;;;1.20;;
44842;SDS011;31884;52.538;13.820;2023-03-15T00:47:17;3.75;;;1.10;;
44842;SDS011;31884;52.538;13.820;2023-03-15T00:49:42;6.75;;;1.10;;
44842;SDS011;31884;52.538;13.820;2023-03-15T00:52:08;6.90;;;0.98;;
44842;SDS011;31884;52.538;13.820;2023-03-15T00:54:33;2.72;;;0.80;;
44842;SDS011;31884;52.538;13.820;2023-03-15T00:56:59;5.68;;;1.00;;
44842;SDS011;31884;52.538;13.820;2023-03-15T00:59:26;4.75;;;1.20;;
44842;SDS011;31884;52.538;13.820;2023-03-15T01:01:53;5.70;;;1.00;;
44842;SDS011;31884;52.538;13.820;2023-03-15T01:04:19;3.88;;;0.77;;
44842;SDS011;31884;52.538;13.820;2023-03-15T01:06:45;4.20;;;0.85;;
44842;SDS011;31884;52.538;13.820;2023-03-15T01:09:10;7.28;;;1.20;;
44842;SDS011;31884;52.538;13.820;2023-03-15T01:11:36;8.88;;;1.35;;
44842;SDS011;31884;52.538;13.820;2023-03-15T01:14:01;7.38;;;1.08;;
44842;SDS011;31884;52.538;13.820;2023-03-15T01:16:32;6.80;;;0.90;;
44842;SDS011;31884;52.538;13.820;2023-03-15T01:18:58;3.35;;;1.33;;
44842;SDS011;31884;52.538;13.820;2023-03-15T01:21:24;5.35;;;0.93;;
44842;SDS011;31884;52.538;13.820;2023-03-15T01:23:49;3.65;;;1.25;;
44842;SDS011;31884;52.538;13.820;2023-03-15T01:26:16;6.45;;;1.17;;
44842;SDS011;31884;52.538;13.820;2023-03-15T01:28:41;5.65;;;1.02;;
44842;SDS011;31884;52.538;13.820;2023-03-15T01:31:27;6.38;;;1.20;;
44842;SDS011;31884;52.538;13.820;2023-03-15T01:33:54;5.78;;;0.85;;
44842;SDS011;31884;52.538;13.820;2023-03-15T01:36:21;5.35;;;1.08;;
44842;SDS011;31884;52.538;13.820;2023-03-15T01:38:47;6.45;;;0.88;;
44842;SDS011;31884;52.538;13.820;2023-03-15T01:41:16;4.07;;;1.00;;
44842;SDS011;31884;52.538;13.820;2023-03-15T01:43:42;5.40;;;1.15;;
44842;SDS011;31884;52.538;13.820;2023-03-15T01:46:24;3.25;;;1.40;;
44842;SDS011;31884;52.538;13.820;2023-03-15T01:48:59;2.42;;;0.80;;
44842;SDS011;31884;52.538;13.820;2023-03-15T01:54:07;5.05;;;1.50;;
44842;SDS011;31884;52.538;13.820;2023-03-15T01:56:37;6.20;;;1.20;;
44842;SDS011;31884;52.538;13.820;2023-03-15T01:59:10;4.50;;;1.08;;
44842;SDS011;31884;52.538;13.820;2023-03-15T02:01:40;6.63;;;1.02;;
44842;SDS011;31884;52.538;13.820;2023-03-15T02:04:09;3.70;;;0.98;;
44842;SDS011;31884;52.538;13.820;2023-03-15T02:06:48;5.70;;;0.98;;
44842;SDS011;31884;52.538;13.820;2023-03-15T02:09:23;3.28;;;0.88;;
44842;SDS011;31884;52.538;13.820;2023-03-15T02:11:56;4.88;;;0.93;;
44842;SDS011;31884;52.538;13.820;2023-03-15T02:14:21;4.32;;;0.80;;
44842;SDS011;31884;52.538;13.820;2023-03-15T02:16:48;6.28;;;1.08;;
44842;SDS011;31884;52.538;13.820;2023-03-15T02:22:22;4.35;;;0.70;;
44842;SDS011;31884;52.538;13.820;2023-03-15T02:25:17;11.73;;;0.98;;
44842;SDS011;31884;52.538;13.820;2023-03-15T02:27:53;2.00;;;0.80;;
44842;SDS011;31884;52.538;13.820;2023-03-15T02:30:20;3.58;;;0.60;;
44842;SDS011;31884;52.538;13.820;2023-03-15T02:32:47;5.15;;;0.90;;
44842;SDS011;31884;52.538;13.820;2023-03-15T02:35:21;4.63;;;0.90;;
44842;SDS011;31884;52.538;13.820;2023-03-15T02:37:47;6.72;;;0.80;;
44842;SDS011;31884;52.538;13.820;2023-03-15T02:40:17;2.03;;;0.80;;
44842;SDS011;31884;52.538;13.820;2023-03-15T02:42:45;3.92;;;0.63;;
44842;SDS011;31884;52.538;13.820;2023-03-15T02:45:12;7.03;;;0.90;;
44842;SDS011;31884;52.538;13.820;2023-03-15T02:47:38;6.57;;;1.38;;
44842;SDS011;31884;52.538;13.820;2023-03-15T02:50:04;4.60;;;1.15;;
44842;SDS011;31884;52.538;13.820;2023-03-15T02:52:31;4.47;;;0.95;;
44842;SDS011;31884;52.538;13.820;2023-03-15T02:54:57;2.35;;;0.90;;
44842;SDS011;31884;52.538;13.820;2023-03-15T02:57:22;6.65;;;1.65;;
44842;SDS011;31884;52.538;13.820;2023-03-15T02:59:48;1.73;;;0.63;;
44842;SDS011;31884;52.538;13.820;2023-03-15T03:02:14;4.07;;;0.80;;
44842;SDS011;31884;52.538;13.820;2023-03-15T03:04:40;9.10;;;1.33;;
44842;SDS011;31884;52.538;13.820;2023-03-15T03:07:06;3.30;;;0.93;;
44842;SDS011;31884;52.538;13.820;2023-03-15T03:09:32;3.90;;;0.80;;
44842;SDS011;31884;52.538;13.820;2023-03-15T03:11:57;4.05;;;0.68;;
44842;SDS011;31884;52.538;13.820;2023-03-15T03:14:23;6.22;;;0.98;;
44842;SDS011;31884;52.538;13.820;2023-03-15T03:16:49;5.90;;;1.25;;
44842;SDS011;31884;52.538;13.820;2023-03-15T03:19:15;3.80;;;0.65;;
44842;SDS011;31884;52.538;13.820;2023-03-15T03:21:41;5.20;;;1.00;;
44842;SDS011;31884;52.538;13.820;2023-03-15T03:24:10;3.50;;;0.65;;
44842;SDS011;31884;52.538;13.820;2023-03-15T03:26:39;1.58;;;0.88;;
44842;SDS011;31884;52.538;13.820;2023-03-15T03:29:05;3.40;;;1.27;;
44842;SDS011;31884;52.538;13.820;2023-03-15T03:31:30;3.90;;;1.20;;
44842;SDS011;31884;52.538;13.820;2023-03-15T03:33:59;5.97;;;1.08;;
44842;SDS011;31884;52.538;13.820;2023-03-15T03:36:24;4.47;;;0.80;;
44842;SDS011;31884;52.538;13.820;2023-03-15T03:38:50;4.55;;;0.98;;
44842;SDS011;31884;52.538;13.820;2023-03-15T03:41:17;3.83;;;0.80;;
44842;SDS011;31884;52.538;13.820;2023-03-15T03:43:43;2.42;;;0.95;;
44842;SDS011;31884;52.538;13.820;2023-03-15T03:46:08;5.10;;;0.88;;
44842;SDS011;31884;52.538;13.820;2023-03-15T03:48:34;3.03;;;0.90;;
44842;SDS011;31884;52.538;13.820;2023-03-15T03:51:00;3.63;;;1.05;;
44842;SDS011;31884;52.538;13.820;2023-03-15T03:53:25;4.82;;;1.20;;
44842;SDS011;31884;52.538;13.820;2023-03-15T03:55:51;7.55;;;1.20;;
44842;SDS011;31884;52.538;13.820;2023-03-15T03:58:18;4.05;;;1.20;;
44842;SDS011;31884;52.538;13.820;2023-03-15T04:00:44;4.32;;;1.20;;
44842;SDS011;31884;52.538;13.820;2023-03-15T04:03:09;3.75;;;1.55;;
44842;SDS011;31884;52.538;13.820;2023-03-15T04:05:35;6.03;;;0.98;;
44842;SDS011;31884;52.538;13.820;2023-03-15T04:08:01;5.32;;;1.10;;
44842;SDS011;31884;52.538;13.820;2023-03-15T04:10:26;3.70;;;1.00;;
44842;SDS011;31884;52.538;13.820;2023-03-15T04:12:52;3.70;;;0.82;;
44842;SDS011;31884;52.538;13.820;2023-03-15T04:15:19;5.75;;;1.20;;
44842;SDS011;31884;52.538;13.820;2023-03-15T04:17:49;7.90;;;0.57;;
44842;SDS011;31884;52.538;13.820;2023-03-15T04:20:22;4.55;;;1.00;;
44842;SDS011;31884;52.538;13.820;2023-03-15T04:22:51;4.75;;;1.48;;
44842;SDS011;31884;52.538;13.820;2023-03-15T04:25:17;6.10;;;1.80;;
44842;SDS011;31884;52.538;13.820;2023-03-15T04:27:44;7.10;;;1.52;;
44842;SDS011;31884;52.538;13.820;2023-03-15T04:30:11;7.32;;;1.50;;
44842;SDS011;31884;52.538;13.820;2023-03-15T04:32:36;3.88;;;1.27;;
44842;SDS011;31884;52.538;13.820;2023-03-15T04:35:02;5.28;;;1.17;;
44842;SDS011;31884;52.538;13.820;2023-03-15T04:37:29;5.50;;;1.60;;
44842;SDS011;31884;52.538;13.820;2023-03-15T04:39:56;8.13;;;1.30;;
44842;SDS011;31884;52.538;13.820;2023-03-15T04:42:21;3.25;;;0.98;;
44842;SDS011;31884;52.538;13.820;2023-03-15T04:44:49;7.50;;;1.20;;
44842;SDS011;31884;52.538;13.820;2023-03-15T04:47:15;3.53;;;1.55;;
44842;SDS011;31884;52.538;13.820;2023-03-15T04:49:41;5.22;;;0.93;;
44842;SDS011;31884;52.538;13.820;2023-03-15T04:52:06;7.05;;;1.20;;
44842;SDS011;31884;52.538;13.820;2023-03-15T04:54:31;4.55;;;1.10;;
44842;SDS011;31884;52.538;13.820;2023-03-15T04:56:57;5.10;;;1.20;;
44842;SDS011;31884;52.538;13.820;2023-03-15T04:59:22;5.55;;;1.10;;
44842;SDS011;31884;52.538;13.820;2023-03-15T05:01:48;3.67;;;1.13;;
44842;SDS011;31884;52.538;13.820;2023-03-15T05:04:13;4.15;;;1.20;;
44842;SDS011;31884;52.538;13.820;2023-03-15T05:06:39;5.75;;;0.80;;
44842;SDS011;31884;52.538;13.820;2023-03-15T05:09:04;3.00;;;1.08;;
44842;SDS011;31884;52.538;13.820;2023-03-15T05:11:30;7.45;;;1.23;;
44842;SDS011;31884;52.538;13.820;2023-03-15T05:13:55;3.55;;;0.95;;
44842;SDS011;31884;52.538;13.820;2023-03-15T05:16:21;4.78;;;1.13;;
44842;SDS011;31884;52.538;13.820;2023-03-15T05:18:46;7.32;;;1.17;;
44842;SDS011;31884;52.538;13.820;2023-03-15T05:21:12;3.75;;;1.20;;
44842;SDS011;31884;52.538;13.820;2023-03-15T05:23:38;8.48;;;1.10;;
44842;SDS011;31884;52.538;13.820;2023-03-15T05:26:04;6.18;;;1.70;;
44842;SDS011;31884;52.538;13.820;2023-03-15T05:28:29;1.77;;;0.68;;
44842;SDS011;31884;52.538;13.820;2023-03-15T05:30:55;5.50;;;1.00;;
44842;SDS011;31884;52.538;13.820;2023-03-15T05:33:21;8.80;;;2.03;;
44842;SDS011;31884;52.538;13.820;2023-03-15T05:35:48;8.15;;;1.13;;
44842;SDS011;31884;52.538;13.820;2023-03-15T05:38:14;6.43;;;1.30;;
44842;SDS011;31884;52.538;13.820;2023-03-15T05:40:40;6.07;;;1.20;;
44842;SDS011;31884;52.538;13.820;2023-03-15T05:43:09;2.83;;;0.93;;
44842;SDS011;31884;52.538;13.820;2023-03-15T05:45:35;6.18;;;1.23;;
44842;SDS011;31884;52.538;13.820;2023-03-15T05:48:01;4.85;;;1.08;;
44842;SDS011;31884;52.538;13.820;2023-03-15T05:50:27;3.75;;;1.20;;
44842;SDS011;31884;52.538;13.820;2023-03-15T05:52:53;4.45;;;1.15;;
44842;SDS011;31884;52.538;13.820;2023-03-15T05:55:19;7.78;;;1.30;;
44842;SDS011;31884;52.538;13.820;2023-03-15T05:57:45;5.65;;;1.05;;
44842;SDS011;31884;52.538;13.820;2023-03-15T06:00:11;7.38;;;1.80;;
44842;SDS011;31884;52.538;13.820;2023-03-15T06:02:39;2.80;;;1.50;;
44842;SDS011;31884;52.538;13.820;2023-03-15T06:05:05;3.83;;;1.25;;
44842;SDS011;31884;52.538;13.820;2023-03-15T06:07:31;8.60;;;1.58;;
44842;SDS011;31884;52.538;13.820;2023-03-15T06:09:56;6.40;;;1.20;;
44842;SDS011;31884;52.538;13.820;2023-03-15T06:12:22;2.95;;;1.15;;
44842;SDS011;31884;52.538;13.820;2023-03-15T06:14:47;4.60;;;1.35;;
44842;SDS011;31884;52.538;13.820;2023-03-15T06:17:13;4.05;;;1.30;;
44842;SDS011;31884;52.538;13.820;2023-03-15T06:19:38;5.78;;;0.80;;
44842;SDS011;31884;52.538;13.820;2023-03-15T06:22:04;5.72;;;1.10;;
44842;SDS011;31884;52.538;13.820;2023-03-15T06:24:29;6.18;;;1.42;;
44842;SDS011;31884;52.538;13.820;2023-03-15T06:26:55;5.88;;;1.75;;
44842;SDS011;31884;52.538;13.820;2023-03-15T06:29:21;5.63;;;2.30;;
44842;SDS011;31884;52.538;13.820;2023-03-15T06:31:47;5.22;;;1.27;;
44842;SDS011;31884;52.538;13.820;2023-03-15T06:34:16;6.47;;;1.52;;
44842;SDS011;31884;52.538;13.820;2023-03-15T06:36:42;3.67;;;1.35;;
44842;SDS011;31884;52.538;13.820;2023-03-15T06:39:09;8.23;;;1.80;;
44842;SDS011;31884;52.538;13.820;2023-03-15T06:41:36;5.43;;;1.45;;
44842;SDS011;31884;52.538;13.820;2023-03-15T06:44:02;10.25;;;1.58;;
44842;SDS011;31884;52.538;13.820;2023-03-15T06:46:28;4.00;;;1.23;;
44842;SDS011;31884;52.538;13.820;2023-03-15T06:48:53;10.15;;;2.38;;
44842;SDS011;31884;52.538;13.820;2023-03-15T06:51:19;8.73;;;2.28;;
44842;SDS011;31884;52.538;13.820;2023-03-15T06:53:44;10.60;;;3.58;;
44842;SDS011;31884;52.538;13.820;2023-03-15T06:56:10;4.85;;;1.67;;
44842;SDS011;31884;52.538;13.820;2023-03-15T06:58:35;4.82;;;1.80;;
44842;SDS011;31884;52.538;13.820;2023-03-15T07:01:01;8.15;;;1.50;;
44842;SDS011;31884;52.538;13.820;2023-03-15T07:03:27;5.43;;;1.67;;
44842;SDS011;31884;52.538;13.820;2023-03-15T07:05:52;5.25;;;1.85;;
44842;SDS011;31884;52.538;13.820;2023-03-15T07:08:21;7.15;;;1.65;;
44842;SDS011;31884;52.538;13.820;2023-03-15T07:10:48;9.13;;;1.67;;
44842;SDS011;31884;52.538;13.820;2023-03-15T07:13:14;6.32;;;1.75;;
44842;SDS011;31884;52.538;13.820;2023-03-15T07:15:40;8.00;;;1.95;;
44842;SDS011;31884;52.538;13.820;2023-03-15T07:18:06;4.20;;;1.60;;
44842;SDS011;31884;52.538;13.820;2023-03-15T07:20:32;7.35;;;2.03;;
44842;SDS011;31884;52.538;13.820;2023-03-15T07:22:58;6.00;;;1.50;;
44842;SDS011;31884;52.538;13.820;2023-03-15T07:25:23;6.30;;;1.30;;
44842;SDS011;31884;52.538;13.820;2023-03-15T07:27:50;7.82;;;1.90;;
44842;SDS011;31884;52.538;13.820;2023-03-15T07:30:16;5.28;;;1.48;;
44842;SDS011;31884;52.538;13.820;2023-03-15T07:32:42;7.60;;;2.10;;
44842;SDS011;31884;52.538;13.820;2023-03-15T07:35:08;2.45;;;1.40;;
44842;SDS011;31884;52.538;13.820;2023-03-15T07:37:34;5.45;;;1.42;;
44842;SDS011;31884;52.538;13.820;2023-03-15T07:39:59;4.88;;;1.70;;
44842;SDS011;31884;52.538;13.820;2023-03-15T07:42:33;4.55;;;1.60;;
44842;SDS011;31884;52.538;13.820;2023-03-15T07:45:05;6.30;;;1.67;;
44842;SDS011;31884;52.538;13.820;2023-03-15T07:47:31;4.57;;;1.75;;
44842;SDS011;31884;52.538;13.820;2023-03-15T07:49:57;6.95;;;2.22;;
44842;SDS011;31884;52.538;13.820;2023-03-15T07:52:23;6.13;;;2.38;;
44842;SDS011;31884;52.538;13.820;2023-03-15T07:54:49;4.68;;;1.80;;
44842;SDS011;31884;52.538;13.820;2023-03-15T07:57:14;6.07;;;1.60;;
44842;SDS011;31884;52.538;13.820;2023-03-15T07:59:40;5.93;;;1.77;;
44842;SDS011;31884;52.538;13.820;2023-03-15T08:02:05;5.55;;;1.77;;
44842;SDS011;31884;52.538;13.820;2023-03-15T08:04:31;5.03;;;1.75;;
44842;SDS011;31884;52.538;13.820;2023-03-15T08:06:57;3.78;;;1.90;;
44842;SDS011;31884;52.538;13.820;2023-03-15T08:09:22;6.43;;;2.25;;
44842;SDS011;31884;52.538;13.820;2023-03-15T08:11:48;4.10;;;1.67;;
44842;SDS011;31884;52.538;13.820;2023-03-15T08:14:14;5.68;;;1.83;;
44842;SDS011;31884;52.538;13.820;2023-03-15T08:16:40;6.97;;;2.10;;
44842;SDS011;31884;52.538;13.820;2023-03-15T08:19:05;7.32;;;1.80;;
44842;SDS011;31884;52.538;13.820;2023-03-15T08:21:31;5.95;;;2.17;;
44842;SDS011;31884;52.538;13.820;2023-03-15T08:23:59;6.85;;;2.10;;
44842;SDS011;31884;52.538;13.820;2023-03-15T08:26:25;6.68;;;2.03;;
44842;SDS011;31884;52.538;13.820;2023-03-15T08:28:50;6.20;;;2.30;;
44842;SDS011;31884;52.538;13.820;2023-03-15T08:31:16;3.97;;;1.65;;
44842;SDS011;31884;52.538;13.820;2023-03-15T08:33:42;3.13;;;1.85;;
44842;SDS011;31884;52.538;13.820;2023-03-15T08:36:07;6.88;;;2.33;;
44842;SDS011;31884;52.538;13.820;2023-03-15T08:38:33;6.00;;;1.67;;
44842;SDS011;31884;52.538;13.820;2023-03-15T08:40:59;9.07;;;2.65;;
44842;SDS011;31884;52.538;13.820;2023-03-15T08:43:24;11.77;;;2.88;;
44842;SDS011;31884;52.538;13.820;2023-03-15T08:45:50;5.80;;;2.47;;
44842;SDS011;31884;52.538;13.820;2023-03-15T08:48:16;9.80;;;2.30;;
44842;SDS011;31884;52.538;13.820;2023-03-15T08:50:41;8.20;;;2.33;;
44842;SDS011;31884;52.538;13.820;2023-03-15T08:53:08;6.03;;;2.05;;
44842;SDS011;31884;52.538;13.820;2023-03-15T08:55:33;5.95;;;2.53;;
44842;SDS011;31884;52.538;13.820;2023-03-15T08:58:01;10.80;;;2.72;;
44842;SDS011;31884;52.538;13.820;2023-03-15T09:00:26;5.80;;;2.30;;
44842;SDS011;31884;52.538;13.820;2023-03-15T09:02:52;7.47;;;2.13;;
44842;SDS011;31884;52.538;13.820;2023-03-15T09:05:18;8.80;;;2.40;;
44842;SDS011;31884;52.538;13.820;2023-03-15T09:07:45;7.22;;;2.40;;
44842;SDS011;31884;52.538;13.820;2023-03-15T09:10:11;10.05;;;2.60;;
44842;SDS011;31884;52.538;13.820;2023-03-15T09:12:42;9.93;;;2.67;;
44842;SDS011;31884;52.538;13.820;2023-03-15T09:15:08;3.38;;;1.60;;
44842;SDS011;31884;52.538;13.820;2023-03-15T09:17:35;6.00;;;1.92;;
44842;SDS011;31884;52.538;13.820;2023-03-15T09:20:02;6.35;;;2.25;;
44842;SDS011;31884;52.538;13.820;2023-03-15T09:22:31;6.47;;;1.75;;
44842;SDS011;31884;52.538;13.820;2023-03-15T09:24:57;6.72;;;1.60;;
44842;SDS011;31884;52.538;13.820;2023-03-15T09:27:22;5.53;;;2.55;;
44842;SDS011;31884;52.538;13.820;2023-03-15T09:29:48;8.50;;;2.55;;
44842;SDS011;31884;52.538;13.820;2023-03-15T09:32:13;8.68;;;2.08;;
44842;SDS011;31884;52.538;13.820;2023-03-15T09:34:39;5.43;;;2.15;;
44842;SDS011;31884;52.538;13.820;2023-03-15T09:37:05;3.10;;;1.90;;
44842;SDS011;31884;52.538;13.820;2023-03-15T09:39:31;3.45;;;1.58;;
44842;SDS011;31884;52.538;13.820;2023-03-15T09:41:57;3.90;;;1.90;;
44842;SDS011;31884;52.538;13.820;2023-03-15T09:47:00;6.25;;;2.45;;
44842;SDS011;31884;52.538;13.820;2023-03-15T09:49:48;5.47;;;1.70;;
44842;SDS011;31884;52.538;13.820;2023-03-15T09:54:57;6.07;;;1.67;;
44842;SDS011;31884;52.538;13.820;2023-03-15T09:57:36;5.35;;;1.83;;
44842;SDS011;31884;52.538;13.820;2023-03-15T10:00:09;9.05;;;1.70;;
44842;SDS011;31884;52.538;13.820;2023-03-15T10:02:41;7.28;;;2.15;;
44842;SDS011;31884;52.538;13.820;2023-03-15T10:05:13;5.93;;;2.53;;
44842;SDS011;31884;52.538;13.820;2023-03-15T10:07:43;7.75;;;2.17;;
44842;SDS011;31884;52.538;13.820;2023-03-15T10:10:16;3.38;;;2.00;;
44842;SDS011;31884;52.538;13.820;2023-03-15T10:12:45;5.80;;;2.50;;
44842;SDS011;31884;52.538;13.820;2023-03-15T10:15:22;7.93;;;2.22;;
44842;SDS011;31884;52.538;13.820;2023-03-15T10:20:44;6.95;;;1.80;;
44842;SDS011;31884;52.538;13.820;2023-03-15T10:26:09;4.85;;;1.80;;
44842;SDS011;31884;52.538;13.820;2023-03-15T10:28:38;4.05;;;1.73;;
44842;SDS011;31884;52.538;13.820;2023-03-15T10:31:09;2.20;;;1.15;;
44842;SDS011;31884;52.538;13.820;2023-03-15T10:36:24;4.93;;;1.80;;
44842;SDS011;31884;52.538;13.820;2023-03-15T10:38:50;5.03;;;1.65;;
44842;SDS011;31884;52.538;13.820;2023-03-15T10:41:35;3.65;;;1.40;;
44842;SDS011;31884;52.538;13.820;2023-03-15T10:44:16;3.17;;;1.45;;
44842;SDS011;31884;52.538;13.820;2023-03-15T10:46:57;4.80;;;1.50;;
44842;SDS011;31884;52.538;13.820;2023-03-15T10:49:31;5.40;;;1.58;;
44842;SDS011;31884;52.538;13.820;2023-03-15T10:51:59;5.25;;;1.30;;
44842;SDS011;31884;52.538;13.820;2023-03-15T10:54:24;4.70;;;1.83;;
44842;SDS011;31884;52.538;13.820;2023-03-15T10:57:11;3.38;;;1.20;;
44842;SDS011;31884;52.538;13.820;2023-03-15T10:59:52;3.80;;;1.20;;
44842;SDS011;31884;52.538;13.820;2023-03-15T11:02:33;6.50;;;1.33;;
44842;SDS011;31884;52.538;13.820;2023-03-15T11:04:59;3.78;;;1.50;;
44842;SDS011;31884;52.538;13.820;2023-03-15T11:07:35;4.57;;;1.70;;
44842;SDS011;31884;52.538;13.820;2023-03-15T11:10:02;2.50;;;1.17;;
44842;SDS011;31884;52.538;13.820;2023-03-15T11:12:30;2.70;;;1.23;;
44842;SDS011;31884;52.538;13.820;2023-03-15T11:14:59;3.58;;;1.08;;
44842;SDS011;31884;52.538;13.820;2023-03-15T11:17:30;3.15;;;1.27;;
44842;SDS011;31884;52.538;13.820;2023-03-15T11:19:58;8.00;;;1.48;;
44842;SDS011;31884;52.538;13.820;2023-03-15T11:22:37;3.47;;;1.83;;
44842;SDS011;31884;52.538;13.820;2023-03-15T11:25:03;2.80;;;1.13;;
44842;SDS011;31884;52.538;13.820;2023-03-15T11:27:29;1.92;;;1.00;;
44842;SDS011;31884;52.538;13.820;2023-03-15T11:29:57;6.15;;;1.42;;
44842;SDS011;31884;52.538;13.820;2023-03-15T11:32:26;4.65;;;1.67;;
44842;SDS011;31884;52.538;13.820;2023-03-15T11:37:27;6.05;;;1.83;;
44842;SDS011;31884;52.538;13.820;2023-03-15T11:40:09;6.00;;;1.40;;
44842;SDS011;31884;52.538;13.820;2023-03-15T11:42:47;3.78;;;1.23;;
44842;SDS011;31884;52.538;13.820;2023-03-15T11:45:28;3.35;;;1.20;;
44842;SDS011;31884;52.538;13.820;2023-03-15T11:48:06;3.40;;;1.40;;
44842;SDS011;31884;52.538;13.820;2023-03-15T11:50:40;2.90;;;1.35;;
44842;SDS011;31884;52.538;13.820;2023-03-15T11:53:05;5.28;;;1.17;;
44842;SDS011;31884;52.538;13.820;2023-03-15T11:55:34;2.63;;;1.10;;
44842;SDS011;31884;52.538;13.820;2023-03-15T12:00:52;3.22;;;0.98;;
44842;SDS011;31884;52.538;13.820;2023-03-15T12:05:58;4.75;;;1.58;;
44842;SDS011;31884;52.538;13.820;2023-03-15T12:10:58;3.25;;;1.60;;
44842;SDS011;31884;52.538;13.820;2023-03-15T12:13:26;3.90;;;0.95;;
44842;SDS011;31884;52.538;13.820;2023-03-15T12:15:53;3.13;;;1.30;;
44842;SDS011;31884;52.538;13.820;2023-03-15T12:18:26;7.72;;;1.27;;
44842;SDS011;31884;52.538;13.820;2023-03-15T12:21:06;1.38;;;0.90;;
44842;SDS011;31884;52.538;13.820;2023-03-15T12:23:46;5.10;;;1.40;;
44842;SDS011;31884;52.538;13.820;2023-03-15T12:26:31;4.28;;;1.00;;
44842;SDS011;31884;52.538;13.820;2023-03-15T12:29:11;3.35;;;0.90;;
44842;SDS011;31884;52.538;13.820;2023-03-15T12:31:54;4.05;;;0.80;;
44842;SDS011;31884;52.538;13.820;2023-03-15T12:36:56;4.07;;;1.37;;
44842;SDS011;31884;52.538;13.820;2023-03-15T12:39:35;4.05;;;1.17;;
44842;SDS011;31884;52.538;13.820;2023-03-15T12:42:01;2.92;;;1.25;;
44842;SDS011;31884;52.538;13.820;2023-03-15T12:46:57;4.60;;;1.55;;
44842;SDS011;31884;52.538;13.820;2023-03-15T12:49:28;5.90;;;1.17;;
44842;SDS011;31884;52.538;13.820;2023-03-15T12:52:04;4.57;;;1.30;;
44842;SDS011;31884;52.538;13.820;2023-03-15T12:54:40;3.65;;;1.17;;
44842;SDS011;31884;52.538;13.820;2023-03-15T12:57:17;3.42;;;1.08;;
44842;SDS011;31884;52.538;13.820;2023-03-15T12:59:54;1.98;;;0.95;;
44842;SDS011;31884;52.538;13.820;2023-03-15T13:02:47;2.17;;;1.00;;
44842;SDS011;31884;52.538;13.820;2023-03-15T13:05:24;6.30;;;1.60;;
44842;SDS011;31884;52.538;13.820;2023-03-15T13:07:55;4.72;;;1.15;;
44842;SDS011;31884;52.538;13.820;2023-03-15T13:10:34;3.03;;;1.08;;
44842;SDS011;31884;52.538;13.820;2023-03-15T13:18:50;2.05;;;1.02;;
44842;SDS011;31884;52.538;13.820;2023-03-15T13:21:35;4.80;;;1.00;;
44842;SDS011;31884;52.538;13.820;2023-03-15T13:24:10;2.78;;;1.30;;
44842;SDS011;31884;52.538;13.820;2023-03-15T13:29:15;1.90;;;0.75;;
44842;SDS011;31884;52.538;13.820;2023-03-15T13:31:45;3.47;;;0.90;;
44842;SDS011;31884;52.538;13.820;2023-03-15T13:34:23;3.35;;;1.45;;
44842;SDS011;31884;52.538;13.820;2023-03-15T13:36:58;2.92;;;1.15;;
44842;SDS011;31884;52.538;13.820;2023-03-15T13:39:27;5.93;;;1.05;;
44842;SDS011;31884;52.538;13.820;2023-03-15T13:42:14;4.63;;;1.23;;
44842;SDS011;31884;52.538;13.820;2023-03-15T13:44:43;2.05;;;0.85;;
44842;SDS011;31884;52.538;13.820;2023-03-15T13:47:09;6.40;;;1.33;;
44842;SDS011;31884;52.538;13.820;2023-03-15T13:49:45;3.00;;;1.02;;
44842;SDS011;31884;52.538;13.820;2023-03-15T13:52:11;2.65;;;0.85;;
44842;SDS011;31884;52.538;13.820;2023-03-15T13:54:38;2.45;;;0.80;;
44842;SDS011;31884;52.538;13.820;2023-03-15T13:57:06;4.82;;;0.80;;
44842;SDS011;31884;52.538;13.820;2023-03-15T14:02:36;2.70;;;0.73;;
44842;SDS011;31884;52.538;13.820;2023-03-15T14:05:32;2.08;;;0.98;;
44842;SDS011;31884;52.538;13.820;2023-03-15T14:08:06;3.63;;;0.80;;
44842;SDS011;31884;52.538;13.820;2023-03-15T14:10:56;2.70;;;0.82;;
44842;SDS011;31884;52.538;13.820;2023-03-15T14:16:31;2.28;;;0.88;;
44842;SDS011;31884;52.538;13.820;2023-03-15T14:21:43;3.88;;;0.90;;
44842;SDS011;31884;52.538;13.820;2023-03-15T14:24:34;6.35;;;1.13;;
44842;SDS011;31884;52.538;13.820;2023-03-15T14:26:59;7.00;;;1.33;;
44842;SDS011;31884;52.538;13.820;2023-03-15T14:29:29;4.38;;;1.40;;
44842;SDS011;31884;52.538;13.820;2023-03-15T14:32:00;4.07;;;1.48;;
44842;SDS011;31884;52.538;13.820;2023-03-15T14:34:44;8.75;;;1.23;;
44842;SDS011;31884;52.538;13.820;2023-03-15T14:37:28;3.95;;;1.00;;
44842;SDS011;31884;52.538;13.820;2023-03-15T14:42:40;5.03;;;0.80;;
44842;SDS011;31884;52.538;13.820;2023-03-15T14:45:06;2.42;;;0.90;;
44842;SDS011;31884;52.538;13.820;2023-03-15T14:47:32;3.10;;;0.80;;
44842;SDS011;31884;52.538;13.820;2023-03-15T14:50:04;3.75;;;0.95;;
44842;SDS011;31884;52.538;13.820;2023-03-15T14:52:38;2.25;;;0.90;;
44842;SDS011;31884;52.538;13.820;2023-03-15T14:55:07;2.20;;;1.52;;
44842;SDS011;31884;52.538;13.820;2023-03-15T14:57:36;2.60;;;1.08;;
44842;SDS011;31884;52.538;13.820;2023-03-15T15:00:01;2.38;;;0.75;;
44842;SDS011;31884;52.538;13.820;2023-03-15T15:02:28;2.28;;;0.80;;
44842;SDS011;31884;52.538;13.820;2023-03-15T15:04:53;4.10;;;0.55;;
44842;SDS011;31884;52.538;13.820;2023-03-15T15:07:19;3.47;;;0.57;;
44842;SDS011;31884;52.538;13.820;2023-03-15T15:09:46;2.22;;;0.50;;
44842;SDS011;31884;52.538;13.820;2023-03-15T15:12:13;1.42;;;0.50;;
44842;SDS011;31884;52.538;13.820;2023-03-15T15:14:39;3.30;;;1.30;;
44842;SDS011;31884;52.538;13.820;2023-03-15T15:17:06;6.55;;;1.55;;
44842;SDS011;31884;52.538;13.820;2023-03-15T15:19:32;3.72;;;0.98;;
44842;SDS011;31884;52.538;13.820;2023-03-15T15:21:58;1.02;;;0.65;;
44842;SDS011;31884;52.538;13.820;2023-03-15T15:24:24;4.20;;;0.82;;
44842;SDS011;31884;52.538;13.820;2023-03-15T15:26:50;3.22;;;0.80;;
44842;SDS011;31884;52.538;13.820;2023-03-15T15:29:16;2.45;;;1.05;;
44842;SDS011;31884;52.538;13.820;2023-03-15T15:31:42;6.55;;;1.13;;
44842;SDS011;31884;52.538;13.820;2023-03-15T15:34:09;2.08;;;0.60;;
44842;SDS011;31884;52.538;13.820;2023-03-15T15:36:37;3.97;;;0.98;;